Time;durP1;ratioP1;P1;durP2;ratioP2;P2;SDS_P1;SDS_P2;PMS_P1;PMS_P2;Temp;Humidity;BMP_temperature;BMP_pressure;BME280_temperature;BME280_humidity;BME280_pressure;Samples;Min_cycle;Max_cycle;Signal;HPM_P1;HPM_P2
2022/12/18 00:00:12;;;;;;;24.00;13.50;;;-3.70;99.90;;;-3.97;73.96;101594.50;5096269;28;20224;-72
2022/12/18 00:02:40;;;;;;;21.13;12.40;;;-3.70;99.90;;;-3.93;73.77;101599.88;5089955;28;20235;-72
2022/12/18 00:05:09;;;;;;;21.80;12.23;;;-3.70;99.90;;;-3.94;73.41;101600.66;5092140;28;20200;-72
2022/12/18 00:07:38;;;;;;;22.77;13.63;;;-3.70;99.90;;;-3.98;73.42;101596.13;5100508;28;20200;-72
2022/12/18 00:10:08;;;;;;;25.07;14.30;;;-3.70;99.90;;;-3.95;73.88;101611.44;5088715;28;20232;-70
2022/12/18 00:12:36;;;;;;;22.43;13.40;;;-3.70;99.90;;;-3.96;73.54;101602.16;5100297;28;20655;-72
2022/12/18 00:15:08;;;;;;;22.77;13.90;;;-3.70;99.90;;;-3.98;73.66;101598.63;5101131;28;20196;-70
2022/12/18 00:17:36;;;;;;;33.10;14.57;;;-3.70;99.90;;;-3.91;73.70;101610.03;5090409;28;20193;-73
2022/12/18 00:20:06;;;;;;;24.07;14.37;;;-3.70;99.90;;;-3.87;73.93;101609.47;5080015;28;20217;-75
2022/12/18 00:22:34;;;;;;;22.00;13.87;;;-3.60;99.90;;;-3.83;74.27;101619.00;5094914;28;20213;-72
2022/12/18 00:25:02;;;;;;;24.07;13.07;;;-3.60;99.90;;;-3.83;73.98;101619.00;5093136;28;20248;-72
2022/12/18 00:27:31;;;;;;;29.30;15.30;;;-3.60;99.90;;;-3.81;74.09;101627.56;5091193;28;20205;-72
2022/12/18 00:29:59;;;;;;;26.73;14.50;;;-3.60;99.90;;;-3.79;74.00;101620.09;5088368;28;20265;-73
2022/12/18 00:32:29;;;;;;;24.47;14.77;;;-3.60;99.90;;;-3.76;73.94;101622.84;5090405;28;20248;-72
2022/12/18 00:34:57;;;;;;;24.10;14.47;;;-3.50;99.90;;;-3.75;73.72;101633.03;5088027;28;20209;-74
2022/12/18 00:37:25;;;;;;;28.07;14.97;;;-3.50;99.90;;;-3.71;73.65;101629.09;5081819;28;20201;-73
2022/12/18 00:39:54;;;;;;;28.43;15.33;;;-3.50;99.90;;;-3.70;73.71;101638.41;5089321;28;20258;-73
2022/12/18 00:45:09;;;;;;;26.77;14.93;;;-3.50;99.90;;;-3.67;73.93;101636.09;5089349;28;20601;-72
2022/12/18 00:47:41;;;;;;;24.57;14.90;;;-3.40;99.90;;;-3.63;74.13;101647.28;5105447;28;20609;-72
2022/12/18 00:50:11;;;;;;;23.30;13.93;;;-3.40;99.90;;;-3.61;73.68;101648.25;5098306;28;20224;-73
2022/12/18 00:52:40;;;;;;;25.40;15.53;;;-3.40;99.90;;;-3.62;74.01;101649.88;5093121;28;20197;-73
2022/12/18 00:55:09;;;;;;;27.00;14.63;;;-3.40;99.90;;;-3.62;74.01;101649.88;5090820;28;20300;-73
2022/12/18 00:57:37;;;;;;;26.37;14.80;;;-3.40;99.90;;;-3.62;73.83;101652.41;5096990;28;20204;-73
2022/12/18 01:00:10;;;;;;;27.07;15.37;;;-3.40;99.90;;;-3.62;74.08;101654.94;5090933;28;20671;-72
2022/12/18 01:02:39;;;;;;;28.87;15.67;;;-3.40;99.90;;;-3.61;73.88;101656.66;5096245;28;20258;-73
2022/12/18 01:05:10;;;;;;;24.20;14.57;;;-3.30;99.90;;;-3.59;73.71;101654.28;5098104;28;20216;-72
2022/12/18 01:07:39;;;;;;;27.10;14.70;;;-3.40;99.90;;;-3.56;73.93;101665.44;5083448;28;20197;-73
2022/12/18 01:10:10;;;;;;;22.60;14.10;;;-3.40;99.90;;;-3.54;73.80;101663.91;5089087;28;20262;-71
2022/12/18 01:12:39;;;;;;;29.07;15.47;;;-3.30;99.90;;;-3.51;73.73;101669.16;5095601;28;20204;-72
2022/12/18 01:15:09;;;;;;;25.73;14.53;;;-3.30;99.90;;;-3.48;73.88;101669.38;5090753;28;20568;-71
2022/12/18 01:17:37;;;;;;;28.03;16.23;;;-3.30;99.90;;;-3.47;73.49;101666.09;5089496;28;20197;-72
2022/12/18 01:20:10;;;;;;;30.17;15.77;;;-3.20;99.90;;;-3.43;73.60;101680.66;5102318;28;20238;-71
2022/12/18 01:22:38;;;;;;;25.47;15.17;;;-3.20;99.90;;;-3.43;73.64;101672.22;5099014;28;20267;-73
2022/12/18 01:25:07;;;;;;;24.87;14.27;;;-3.20;99.90;;;-3.47;73.49;101676.16;5092204;28;20629;-73
2022/12/18 01:27:36;;;;;;;26.73;14.53;;;-3.20;99.90;;;-3.46;73.35;101677.03;5087481;28;20642;-72
2022/12/18 01:30:06;;;;;;;26.40;15.23;;;-3.30;99.90;;;-3.47;72.95;101676.16;5087129;28;20225;-72
2022/12/18 01:32:34;;;;;;;25.23;15.10;;;-3.30;99.90;;;-3.48;73.04;101692.06;5092928;28;20625;-71
2022/12/18 01:35:03;;;;;;;24.00;14.93;;;-3.20;99.90;;;-3.46;72.79;101702.22;5089220;28;20672;-73
2022/12/18 01:37:33;;;;;;;25.30;13.90;;;-3.30;99.90;;;-3.46;72.83;101712.31;5090679;28;20242;-73
2022/12/18 01:40:01;;;;;;;26.40;14.33;;;-3.30;99.90;;;-3.48;73.07;101709.69;5089451;28;20208;-74
2022/12/18 01:42:30;;;;;;;24.40;13.03;;;-3.20;99.90;;;-3.48;72.85;101711.34;5081826;28;20684;-72
2022/12/18 01:45:06;;;;;;;23.67;13.57;;;-3.20;99.90;;;-3.52;72.73;101712.75;5088514;28;20467;-73
2022/12/18 01:47:39;;;;;;;24.10;12.93;;;-3.30;99.90;;;-3.51;72.93;101714.50;5099227;28;20246;-72
2022/12/18 01:50:14;;;;;;;25.30;14.07;;;-3.30;99.90;;;-3.49;72.72;101723.06;5100489;28;20269;-72
2022/12/18 01:52:49;;;;;;;24.43;13.97;;;-3.30;99.90;;;-3.50;72.76;101718.81;5087267;28;20204;-72
2022/12/18 01:55:23;;;;;;;28.70;14.70;;;-3.20;99.90;;;-3.51;72.51;101714.50;5092601;28;20203;-71
2022/12/18 01:57:55;;;;;;;25.13;13.70;;;-3.30;99.90;;;-3.49;72.83;101723.06;5088152;28;20228;-73
2022/12/18 02:00:26;;;;;;;23.67;14.00;;;-3.20;99.90;;;-3.49;72.95;101719.69;5087977;28;20754;-72
2022/12/18 02:02:55;;;;;;;24.73;13.70;;;-3.30;99.90;;;-3.48;72.21;101724.81;5096864;28;20613;-70
2022/12/18 02:05:37;;;;;;;22.03;13.53;;;-3.30;99.90;;;-3.50;72.65;101731.41;5088155;28;20200;-73
2022/12/18 02:08:15;;;;;;;27.00;14.27;;;-3.30;99.90;;;-3.47;72.36;101731.59;5091155;28;20294;-71
2022/12/18 02:10:55;;;;;;;24.27;13.47;;;-3.30;99.90;;;-3.45;72.19;101732.59;5094577;27;20255;-70
2022/12/18 02:13:37;;;;;;;24.27;13.70;;;-3.30;99.90;;;-3.44;72.14;101744.41;5084655;28;20200;-73
2022/12/18 02:16:14;;;;;;;22.77;12.73;;;-3.20;99.90;;;-3.40;72.55;101756.47;5080928;28;20197;-71
2022/12/18 02:18:48;;;;;;;26.90;13.97;;;-3.20;99.90;;;-3.40;72.07;101758.13;5091554;28;20227;-72
2022/12/18 02:21:29;;;;;;;26.47;14.67;;;-3.20;99.90;;;-3.37;72.12;101753.31;5095520;28;20196;-74
2022/12/18 02:24:18;;;;;;;26.90;14.47;;;-3.20;99.90;;;-3.36;72.09;101761.72;5091711;28;20296;-71
2022/12/18 02:26:51;;;;;;;24.93;13.50;;;-3.20;99.90;;;-3.40;72.28;101764.03;5089871;28;20270;-74
2022/12/18 02:29:27;;;;;;;23.80;12.73;;;-3.20;99.90;;;-3.44;71.54;101764.56;5097516;28;20220;-72
2022/12/18 02:31:59;;;;;;;26.93;14.97;;;-3.20;99.90;;;-3.49;71.99;101757.47;5088640;28;20208;-73
2022/12/18 02:34:32;;;;;;;30.57;14.87;;;-3.20;99.90;;;-3.50;71.83;101766.69;5098263;28;20197;-72
2022/12/18 02:37:05;;;;;;;24.20;13.80;;;-3.30;99.90;;;-3.48;72.02;101775.19;5093449;28;20701;-72
2022/12/18 02:39:36;;;;;;;23.67;12.73;;;-3.20;99.90;;;-3.45;72.16;101777.06;5105330;28;20605;-72
2022/12/18 02:42:07;;;;;;;25.40;13.00;;;-3.30;99.90;;;-3.42;72.33;101788.25;5093950;28;20209;-73
2022/12/18 02:44:43;;;;;;;27.40;13.27;;;-3.20;99.90;;;-3.43;71.95;101791.53;5092344;28;20675;-71
2022/12/18 02:47:13;;;;;;;26.03;12.93;;;-3.20;99.90;;;-3.45;72.09;101787.16;5080167;28;20197;-71
2022/12/18 02:49:54;;;;;;;27.63;13.90;;;-3.30;99.90;;;-3.46;72.08;101788.81;5079621;28;20221;-72
2022/12/18 02:52:32;;;;;;;20.93;12.40;;;-3.20;99.90;;;-3.47;72.02;101787.03;5081596;28;20653;-72
2022/12/18 02:55:16;;;;;;;24.97;12.67;;;-3.20;99.90;;;-3.46;71.82;101782.84;5089799;28;20269;-72
2022/12/18 02:57:53;;;;;;;22.57;12.37;;;-3.20;99.90;;;-3.43;71.65;101803.25;5091643;28;20231;-72
2022/12/18 03:00:29;;;;;;;22.47;13.43;;;-3.20;99.90;;;-3.41;71.80;101801.72;5095574;28;20255;-71
2022/12/18 03:03:06;;;;;;;23.63;12.17;;;-3.20;99.90;;;-3.41;71.76;101807.63;5101642;28;20609;-71
2022/12/18 03:05:39;;;;;;;28.00;13.57;;;-3.20;99.90;;;-3.41;71.18;101814.34;5099865;28;20212;-72
2022/12/18 03:08:13;;;;;;;30.33;14.50;;;-3.30;99.90;;;-3.41;71.45;101820.25;5090227;28;20234;-70
2022/12/18 03:10:46;;;;;;;24.67;12.90;;;-3.20;99.90;;;-3.41;71.55;101827.81;5090566;28;20212;-73
2022/12/18 03:13:22;;;;;;;27.43;13.73;;;-3.20;99.90;;;-3.41;71.09;101832.84;5091045;28;20208;-73
2022/12/18 03:15:55;;;;;;;27.13;13.10;;;-3.20;99.90;;;-3.43;71.31;101834.34;5098498;28;20204;-71
2022/12/18 03:18:30;;;;;;;26.37;14.00;;;-3.20;99.90;;;-3.46;71.38;101839.19;5086639;28;20270;-71
2022/12/18 03:21:04;;;;;;;24.00;13.83;;;-3.20;99.90;;;-3.51;71.30;101834.56;5080491;28;20267;-72
2022/12/18 03:23:40;;;;;;;25.37;13.17;;;-3.30;99.90;;;-3.51;71.44;101837.09;5089255;28;20229;-70
2022/12/18 03:26:14;;;;;;;25.00;13.03;;;-3.30;99.90;;;-3.53;70.97;101842.03;5091963;28;20213;-73
2022/12/18 03:28:52;;;;;;;23.37;12.63;;;-3.30;99.90;;;-3.57;71.22;101840.06;5085914;28;20240;-73
2022/12/18 03:31:23;;;;;;;23.67;13.40;;;-3.30;99.90;;;-3.61;70.57;101843.06;5085999;28;20251;-73
2022/12/18 03:33:56;;;;;;;30.43;13.33;;;-3.40;99.90;;;-3.63;71.13;101848.78;5085661;28;20213;-72
2022/12/18 03:36:25;;;;;;;22.27;12.27;;;-3.40;99.90;;;-3.66;71.26;101854.47;5099690;28;20239;-73
2022/12/18 03:38:54;;;;;;;22.20;12.00;;;-3.40;99.90;;;-3.69;71.20;101859.28;5092417;28;20232;-71
2022/12/18 03:41:30;;;;;;;24.00;12.43;;;-3.40;99.90;;;-3.70;71.40;101857.53;5089458;28;20699;-73
2022/12/18 03:44:07;;;;;;;22.47;12.53;;;-3.40;99.90;;;-3.72;71.63;101859.94;5096186;28;20624;-74
2022/12/18 03:46:48;;;;;;;25.10;12.80;;;-3.50;99.90;;;-3.72;71.37;101861.56;5098598;28;20713;-74
2022/12/18 03:49:24;;;;;;;21.43;11.10;;;-3.50;99.90;;;-3.71;71.49;101868.38;5106864;28;20223;-72
2022/12/18 03:51:58;;;;;;;23.20;12.67;;;-3.50;99.90;;;-3.70;71.07;101867.59;5100964;28;20231;-70
2022/12/18 03:54:28;;;;;;;23.37;11.53;;;-3.50;99.90;;;-3.68;71.37;101868.59;5092895;28;20740;-75
2022/12/18 03:57:04;;;;;;;20.70;12.23;;;-3.50;99.90;;;-3.66;71.66;101872.09;5086879;28;20840;-72
2022/12/18 03:59:36;;;;;;;24.33;12.53;;;-3.40;99.90;;;-3.64;72.01;101873.09;5087678;28;20224;-72
2022/12/18 04:02:07;;;;;;;23.37;12.23;;;-3.40;99.90;;;-3.60;71.74;101875.09;5092129;28;20185;-72
2022/12/18 04:04:38;;;;;;;22.37;12.80;;;-3.40;99.90;;;-3.56;71.91;101879.59;5098576;28;20208;-73
2022/12/18 04:07:07;;;;;;;21.80;11.80;;;-3.40;99.90;;;-3.51;71.45;101890.88;5102297;28;20209;-72
2022/12/18 04:09:37;;;;;;;22.33;12.27;;;-3.30;99.90;;;-3.50;71.68;101890.13;5100828;28;20253;-72
2022/12/18 04:12:06;;;;;;;26.30;12.97;;;-3.30;99.90;;;-3.49;71.23;101893.53;5083972;28;20217;-72
2022/12/18 04:14:35;;;;;;;21.37;11.40;;;-3.30;99.90;;;-3.49;70.93;101889.38;5087717;28;20204;-70
2022/12/18 04:17:04;;;;;;;23.47;12.03;;;-3.30;99.90;;;-3.52;71.02;101899.22;5088229;28;20205;-72
2022/12/18 04:19:33;;;;;;;24.13;12.90;;;-3.30;99.90;;;-3.52;71.23;101910.94;5098615;28;20656;-71
2022/12/18 04:22:01;;;;;;;20.27;11.90;;;-3.40;99.90;;;-3.57;71.18;101905.56;5107670;28;20263;-71
2022/12/18 04:24:29;;;;;;;23.47;12.43;;;-3.30;99.90;;;-3.59;71.06;101916.28;5092370;28;20246;-71
2022/12/18 04:26:58;;;;;;;23.43;10.90;;;-3.30;99.90;;;-3.61;70.84;101928.72;5091342;28;20596;-72
2022/12/18 04:29:26;;;;;;;20.97;11.13;;;-3.40;99.90;;;-3.65;70.71;101919.19;5093340;28;20419;-69
2022/12/18 04:31:56;;;;;;;21.40;11.70;;;-3.40;99.90;;;-3.70;71.58;101921.38;5104329;28;20687;-75
2022/12/18 04:34:24;;;;;;;22.10;11.33;;;-3.40;99.90;;;-3.70;71.37;101938.13;5097373;27;20208;-73
2022/12/18 04:36:52;;;;;;;22.27;10.87;;;-3.50;99.90;;;-3.74;70.92;101928.59;5093456;28;20209;-72
2022/12/18 04:39:21;;;;;;;23.57;11.70;;;-3.50;99.90;;;-3.78;70.76;101932.50;5094578;28;20344;-71
2022/12/18 04:41:49;;;;;;;21.07;11.07;;;-3.40;99.90;;;-3.77;71.14;101933.38;5097734;28;20254;-71
2022/12/18 04:44:18;;;;;;;23.53;11.73;;;-3.60;99.90;;;-3.81;71.09;101938.94;5082058;28;20201;-71
2022/12/18 04:46:46;;;;;;;18.57;11.27;;;-3.60;99.90;;;-3.84;71.29;101944.63;5087733;28;20208;-73
2022/12/18 04:49:16;;;;;;;21.57;11.17;;;-3.60;99.90;;;-3.89;70.87;101944.28;5101161;28;20206;-72
2022/12/18 04:51:44;;;;;;;20.17;11.47;;;-3.70;99.90;;;-3.95;71.41;101946.31;5101483;28;20345;-73
2022/12/18 04:54:13;;;;;;;22.70;11.03;;;-3.70;99.90;;;-3.98;70.83;101947.72;5093363;28;20265;-73
2022/12/18 04:56:41;;;;;;;22.73;11.57;;;-3.80;99.90;;;-4.04;71.68;101949.78;5100577;28;20227;-71
2022/12/18 04:59:09;;;;;;;19.97;11.13;;;-3.80;99.90;;;-4.10;71.35;101955.19;5091679;28;20625;-71
2022/12/18 05:01:38;;;;;;;18.27;10.67;;;-3.90;99.90;;;-4.14;71.45;101961.63;5095069;28;20208;-72
2022/12/18 05:04:07;;;;;;;21.77;11.13;;;-4.00;99.90;;;-4.14;72.01;101965.78;5088207;28;20256;-69
2022/12/18 05:06:37;;;;;;;17.80;10.50;;;-4.00;99.90;;;-4.17;71.88;101968.06;5108680;28;20208;-73
2022/12/18 05:09:05;;;;;;;18.33;11.00;;;-4.00;99.90;;;-4.18;71.97;101972.22;5102584;28;20192;-72
2022/12/18 05:11:33;;;;;;;20.93;11.07;;;-4.00;99.90;;;-4.21;72.21;101978.66;5099896;28;20284;-71
2022/12/18 05:14:02;;;;;;;21.63;11.87;;;-4.00;99.90;;;-4.22;72.24;101981.94;5093776;27;20213;-71
2022/12/18 05:16:30;;;;;;;20.77;10.73;;;-4.00;99.90;;;-4.25;72.22;101985.06;5092731;28;20209;-73
2022/12/18 05:18:58;;;;;;;22.53;11.73;;;-4.00;99.90;;;-4.27;72.35;101991.66;5087362;28;20254;-73
2022/12/18 05:21:27;;;;;;;23.67;12.17;;;-4.10;99.90;;;-4.29;72.52;102000.69;5108842;28;20232;-73
2022/12/18 05:23:56;;;;;;;20.00;10.47;;;-4.10;99.90;;;-4.32;72.54;101992.03;5096476;28;20278;-74
2022/12/18 05:26:25;;;;;;;24.00;12.10;;;-4.10;99.90;;;-4.35;72.62;102004.34;5096027;28;20235;-74
2022/12/18 05:28:55;;;;;;;23.90;12.40;;;-4.10;99.90;;;-4.39;72.71;102004.09;5098111;28;20208;-72
2022/12/18 05:31:24;;;;;;;22.70;11.60;;;-4.20;99.90;;;-4.41;72.68;102013.19;5087010;28;20715;-73
2022/12/18 05:33:52;;;;;;;19.70;11.53;;;-4.20;99.90;;;-4.44;72.62;102017.09;5096499;28;20208;-71
2022/12/18 05:36:21;;;;;;;22.43;11.90;;;-4.20;99.90;;;-4.48;72.74;102010.94;5079190;28;20302;-72
2022/12/18 05:38:49;;;;;;;23.03;11.60;;;-4.30;99.90;;;-4.49;72.61;102029.31;5086470;28;20685;-73
2022/12/18 05:41:19;;;;;;;24.53;12.17;;;-4.30;99.90;;;-4.54;72.82;102020.50;5092526;28;20197;-73
2022/12/18 05:43:48;;;;;;;24.77;12.47;;;-4.30;99.90;;;-4.57;73.27;102032.81;5100518;28;20247;-70
2022/12/18 05:46:18;;;;;;;22.87;11.60;;;-4.30;99.90;;;-4.64;72.83;102031.47;5089606;28;20201;-72
2022/12/18 05:48:48;;;;;;;25.43;12.13;;;-4.40;99.90;;;-4.71;74.03;102026.69;5078941;28;20213;-71
2022/12/18 05:51:19;;;;;;;26.23;13.17;;;-4.40;99.90;;;-4.70;74.18;102037.63;5092953;28;20658;-75
2022/12/18 05:53:48;;;;;;;24.73;13.20;;;-4.40;99.90;;;-4.66;74.01;102039.63;5095813;28;20683;-72
2022/12/18 05:56:21;;;;;;;25.80;12.63;;;-4.40;99.90;;;-4.65;74.39;102043.91;5089864;28;20675;-72
2022/12/18 05:58:52;;;;;;;26.33;13.53;;;-4.40;99.90;;;-4.62;74.14;102041.63;5079263;28;20576;-73
2022/12/18 06:01:25;;;;;;;29.63;13.30;;;-4.40;99.90;;;-4.61;74.14;102038.34;5080764;28;20278;-73
2022/12/18 06:03:53;;;;;;;31.67;15.17;;;-4.40;99.90;;;-4.59;75.04;102051.94;5088201;28;20235;-73
2022/12/18 06:06:25;;;;;;;29.27;13.27;;;-4.30;99.90;;;-4.58;74.66;102042.75;5098857;28;20208;-73
2022/12/18 06:08:55;;;;;;;28.27;13.37;;;-4.30;99.90;;;-4.56;75.00;102047.16;5088778;28;20196;-71
2022/12/18 06:11:27;;;;;;;27.60;13.70;;;-4.30;99.90;;;-4.52;75.05;102050.81;5106721;28;20220;-74
2022/12/18 06:13:57;;;;;;;34.93;15.17;;;-4.30;99.90;;;-4.47;75.43;102054.56;5086196;28;20262;-73
2022/12/18 06:16:29;;;;;;;28.90;14.20;;;-4.20;99.90;;;-4.40;75.14;102059.34;5081802;28;20675;-74
2022/12/18 06:18:58;;;;;;;28.93;14.73;;;-4.20;99.90;;;-4.36;75.10;102071.41;5096331;28;20597;-71
2022/12/18 06:21:27;;;;;;;31.67;15.07;;;-4.10;99.90;;;-4.32;75.35;102070.03;5088143;28;20334;-73
2022/12/18 06:23:56;;;;;;;36.73;15.40;;;-4.10;99.90;;;-4.32;75.17;102075.94;5094048;28;20263;-71
2022/12/18 06:26:26;;;;;;;33.10;15.77;;;-4.10;99.90;;;-4.27;75.27;102087.28;5095886;28;20315;-74
2022/12/18 06:28:55;;;;;;;30.97;14.87;;;-4.00;99.90;;;-4.23;75.49;102096.81;5101172;28;20262;-72
2022/12/18 06:31:24;;;;;;;34.00;15.63;;;-4.00;99.90;;;-4.21;75.30;102095.28;5100794;28;20221;-72
2022/12/18 06:33:53;;;;;;;35.23;15.23;;;-4.00;99.90;;;-4.22;75.79;102100.22;5106309;28;20205;-72
2022/12/18 06:36:22;;;;;;;31.40;14.83;;;-4.00;99.90;;;-4.21;75.43;102101.97;5084047;28;20434;-74
2022/12/18 06:38:50;;;;;;;39.75;18.25;;;-4.00;99.90;;;-4.21;75.21;102102.84;5089276;28;20912;-72
2022/12/18 06:41:21;;;;;;;39.60;16.83;;;-3.90;99.90;;;-4.18;75.83;102109.78;5093207;28;20212;-72
2022/12/18 06:43:51;;;;;;;37.50;16.73;;;-3.90;99.90;;;-4.13;75.52;102114.41;5104722;28;20249;-72
2022/12/18 06:46:26;;;;;;;34.57;15.73;;;-3.90;99.90;;;-4.13;75.53;102116.03;5097817;28;20238;-73
2022/12/18 06:48:55;;;;;;;37.50;16.40;;;-3.90;99.90;;;-4.15;75.40;102117.56;5096708;28;20257;-70
2022/12/18 06:51:25;;;;;;;37.15;17.77;;;-3.90;99.90;;;-4.19;75.46;102125.63;5098304;28;20449;-72
2022/12/18 06:53:54;;;;;;;33.73;15.77;;;-3.90;99.90;;;-4.17;75.93;102139.22;5092254;28;20357;-74
2022/12/18 06:56:23;;;;;;;31.67;16.70;;;-3.90;99.90;;;-4.16;75.90;102141.88;5090436;28;20208;-72
2022/12/18 06:58:53;;;;;;;40.70;21.77;;;-3.90;99.90;;;-4.15;76.09;102142.75;5091513;28;20441;-73
2022/12/18 07:01:22;;;;;;;40.47;22.90;;;-3.90;99.90;;;-4.21;76.53;102138.09;5092781;28;20505;-73
2022/12/18 07:03:54;;;;;;;33.63;17.17;;;-3.90;99.90;;;-4.20;76.46;102139.88;5087593;28;20205;-74
2022/12/18 07:06:25;;;;;;;35.07;17.57;;;-3.90;99.90;;;-4.19;76.01;102140.75;5100126;28;20254;-76
2022/12/18 07:08:55;;;;;;;33.47;16.97;;;-4.00;99.90;;;-4.20;75.98;102149.94;5099862;28;20568;-75
2022/12/18 07:11:24;;;;;;;32.30;16.17;;;-3.90;99.90;;;-4.19;75.76;102146.66;5097954;28;20253;-72
2022/12/18 07:13:54;;;;;;;36.57;15.67;;;-3.90;99.90;;;-4.17;76.29;102155.19;5109386;28;20258;-72
2022/12/18 07:16:23;;;;;;;38.80;17.07;;;-3.90;99.90;;;-4.14;76.33;102169.69;5109487;28;20743;-74
2022/12/18 07:18:53;;;;;;;32.40;16.10;;;-3.90;99.90;;;-4.10;76.55;102163.25;5091048;28;20205;-77
2022/12/18 07:21:23;;;;;;;32.60;15.43;;;-3.90;99.90;;;-4.09;76.43;102165.88;5084290;28;20665;-73
2022/12/18 07:23:52;;;;;;;36.80;16.07;;;-3.80;99.90;;;-4.02;76.50;102169.78;5094215;28;20256;-73
2022/12/18 07:26:22;;;;;;;33.13;16.60;;;-3.80;99.90;;;-3.99;76.57;102170.91;5092453;28;20236;-77
2022/12/18 07:28:51;;;;;;;38.77;15.77;;;-3.70;99.90;;;-3.98;76.09;102174.31;5080900;28;20216;-75
2022/12/18 07:31:22;;;;;;;34.67;16.20;;;-3.70;99.90;;;-3.96;76.49;102177.84;5093776;28;20204;-75
2022/12/18 07:33:52;;;;;;;37.13;16.53;;;-3.70;99.90;;;-3.96;76.46;102177.84;5090421;28;20227;-75
2022/12/18 07:36:24;;;;;;;39.93;16.93;;;-3.70;99.90;;;-3.92;76.70;102174.81;5094200;28;20204;-75
2022/12/18 07:38:53;;;;;;;30.60;16.47;;;-3.70;99.90;;;-3.85;76.40;102171.16;5098085;28;20211;-73
2022/12/18 07:41:22;;;;;;;38.93;17.37;;;-3.60;99.90;;;-3.80;76.25;102179.94;5091552;28;20242;-76
2022/12/18 07:43:51;;;;;;;31.77;15.83;;;-3.50;99.90;;;-3.77;75.93;102188.63;5094218;28;20246;-76
2022/12/18 07:46:21;;;;;;;33.23;16.43;;;-3.50;99.90;;;-3.75;75.83;102191.31;5089504;28;20229;-75
2022/12/18 07:48:49;;;;;;;40.70;17.23;;;-3.50;99.90;;;-3.75;76.17;102198.84;5096518;28;20204;-77
2022/12/18 07:51:19;;;;;;;34.60;16.60;;;-3.50;99.90;;;-3.72;76.12;102204.09;5113130;28;20253;-75
2022/12/18 07:53:48;;;;;;;31.47;15.43;;;-3.50;99.90;;;-3.71;75.70;102203.38;5093806;28;20388;-76
2022/12/18 07:56:21;;;;;;;38.47;16.10;;;-3.50;99.90;;;-3.71;75.62;102213.44;5118909;28;20196;-77
2022/12/18 07:58:56;;;;;;;38.47;16.70;;;-3.40;99.90;;;-3.72;75.37;102216.72;5120052;28;20192;-73
2022/12/18 08:01:26;;;;;;;38.63;15.97;;;-3.50;99.90;;;-3.70;75.51;102221.13;5113181;28;20217;-71
2022/12/18 08:03:54;;;;;;;31.03;14.93;;;-3.50;99.90;;;-3.68;75.70;102228.81;5100930;28;20226;-71
2022/12/18 08:06:23;;;;;;;36.40;15.60;;;-3.50;99.90;;;-3.70;75.99;102227.81;5108413;28;20238;-71
2022/12/18 08:08:53;;;;;;;35.07;15.37;;;-3.40;99.90;;;-3.65;75.80;102239.13;5106872;28;20213;-71
2022/12/18 08:11:23;;;;;;;34.73;16.77;;;-3.40;99.90;;;-3.59;75.33;102236.22;5107753;28;20201;-71
2022/12/18 08:13:52;;;;;;;33.67;16.33;;;-3.40;99.90;;;-3.52;75.73;102246.91;5116997;28;20232;-72
2022/12/18 08:16:22;;;;;;;35.63;15.77;;;-3.30;99.90;;;-3.42;75.71;102244.38;5111626;28;20209;-75
2022/12/18 08:18:53;;;;;;;34.23;15.67;;;-3.20;99.90;;;-3.31;75.48;102247.75;5096145;28;20246;-71
2022/12/18 08:21:24;;;;;;;34.63;14.23;;;-3.10;99.90;;;-3.26;74.71;102240.56;5098196;28;20235;-72
2022/12/18 08:23:55;;;;;;;33.07;15.30;;;-3.00;99.90;;;-3.25;74.95;102258.31;5097168;28;20257;-75
2022/12/18 08:26:24;;;;;;;35.93;15.37;;;-3.00;99.90;;;-3.23;74.12;102255.94;5093209;28;20228;-75
2022/12/18 08:28:55;;;;;;;28.83;14.70;;;-3.00;99.90;;;-3.19;74.70;102260.44;5088578;28;20201;-77
2022/12/18 08:31:25;;;;;;;29.93;15.83;;;-3.00;99.90;;;-3.17;74.67;102256.41;5089997;28;20574;-76
2022/12/18 08:33:55;;;;;;;34.07;15.20;;;-2.90;99.90;;;-3.12;73.92;102264.34;5086702;28;20237;-75
2022/12/18 08:36:26;;;;;;;31.10;15.03;;;-2.90;99.90;;;-3.08;73.96;102279.84;5085382;28;20196;-75
2022/12/18 08:38:54;;;;;;;28.33;14.10;;;-2.90;99.90;;;-3.06;73.29;102274.91;5096223;28;20201;-74
2022/12/18 08:41:24;;;;;;;28.67;14.70;;;-2.80;99.90;;;-3.05;72.74;102287.66;5102316;28;20204;-77
2022/12/18 08:46:41;;;;;;;31.23;15.13;;;-2.80;99.90;;;-3.05;73.21;102287.66;5083751;28;20239;-74
2022/12/18 08:49:12;;;;;;;28.87;14.87;;;-2.80;99.90;;;-3.10;72.06;102281.34;5094884;28;20350;-74
2022/12/18 08:51:41;;;;;;;29.00;14.87;;;-2.90;99.90;;;-3.15;72.27;102280.09;5095116;28;20219;-74
2022/12/18 08:54:13;;;;;;;25.77;14.13;;;-3.00;99.90;;;-3.19;72.40;102286.53;5093040;28;20693;-77
2022/12/18 08:56:41;;;;;;;32.03;15.57;;;-3.00;99.90;;;-3.24;72.41;102289.44;5103152;28;20208;-75
2022/12/18 08:59:10;;;;;;;33.07;15.47;;;-3.00;99.90;;;-3.28;73.03;102293.34;5094805;28;20213;-72
2022/12/18 09:01:47;;;;;;;30.90;15.47;;;-3.00;99.90;;;-3.25;72.87;102283.53;5089636;28;20203;-72
2022/12/18 09:04:17;;;;;;;33.07;15.33;;;-3.00;99.90;;;-3.18;73.54;102284.91;5096060;28;20204;-72
2022/12/18 09:06:46;;;;;;;28.20;14.87;;;-2.90;99.90;;;-3.12;72.98;102292.09;5096539;28;20230;-73
2022/12/18 09:09:15;;;;;;;30.33;15.43;;;-2.90;99.90;;;-3.09;72.84;102295.72;5103319;28;20489;-72
2022/12/18 09:11:43;;;;;;;33.43;16.13;;;-2.90;99.90;;;-3.07;72.66;102299.25;5091471;28;20201;-73
2022/12/18 09:14:13;;;;;;;33.23;16.53;;;-2.90;99.90;;;-3.03;72.94;102302.88;5096075;28;20250;-72
2022/12/18 09:16:41;;;;;;;29.03;15.87;;;-2.90;99.90;;;-3.01;72.37;102304.78;5094337;28;20219;-74
2022/12/18 09:19:10;;;;;;;30.40;14.60;;;-2.80;99.90;;;-2.98;72.58;102304.16;5087635;28;20197;-73
2022/12/18 09:21:40;;;;;;;28.67;15.83;;;-2.80;99.90;;;-2.97;72.48;102309.31;5094062;28;20201;-72
2022/12/18 09:24:16;;;;;;;32.03;15.83;;;-2.80;99.90;;;-2.94;72.18;102311.19;5093450;28;20289;-70
2022/12/18 09:26:44;;;;;;;30.57;15.03;;;-2.70;99.90;;;-2.93;72.27;102308.78;5081380;28;20214;-71
2022/12/18 09:29:15;;;;;;;32.43;15.77;;;-2.70;99.90;;;-2.91;71.80;102313.94;5097003;28;20869;-74
2022/12/18 09:31:46;;;;;;;27.77;15.73;;;-2.70;99.90;;;-2.89;71.93;102309.03;5089665;28;20217;-74
2022/12/18 09:34:14;;;;;;;31.33;15.73;;;-2.70;99.90;;;-2.80;72.22;102305.59;5092752;28;20224;-74
2022/12/18 09:36:44;;;;;;;33.87;17.27;;;-2.60;99.90;;;-2.68;72.19;102305.69;5093267;28;20234;-73
2022/12/18 09:39:15;;;;;;;34.63;16.20;;;-2.50;99.90;;;-2.57;72.24;102309.03;5090614;28;20200;-72
2022/12/18 09:41:49;;;;;;;32.97;16.40;;;-2.40;99.90;;;-2.55;71.20;102315.94;5096076;28;20272;-72
2022/12/18 09:44:26;;;;;;;34.53;16.83;;;-2.40;99.90;;;-2.59;70.65;102303.84;5091556;28;20203;-71
2022/12/18 09:47:06;;;;;;;31.87;15.80;;;-2.40;99.90;;;-2.62;70.68;102311.19;5096111;28;20200;-71
2022/12/18 09:49:43;;;;;;;41.07;19.47;;;-2.40;99.90;;;-2.60;70.75;102309.66;5089269;28;20193;-74
2022/12/18 09:52:20;;;;;;;33.77;18.67;;;-2.40;99.90;;;-2.61;71.06;102319.66;5101020;28;20232;-72
2022/12/18 09:54:55;;;;;;;38.33;19.80;;;-2.40;99.90;;;-2.62;70.92;102323.78;5096443;28;20310;-71
2022/12/18 09:57:25;;;;;;;39.27;19.93;;;-2.40;99.90;;;-2.65;70.83;102321.06;5079842;28;20217;-71
2022/12/18 10:00:00;;;;;;;38.00;19.53;;;-2.40;99.90;;;-2.64;71.10;102317.75;5086148;28;20297;-73
2022/12/18 10:02:32;;;;;;;39.73;19.70;;;-2.40;99.90;;;-2.54;70.74;102322.78;5095756;28;20211;-71
2022/12/18 10:05:08;;;;;;;36.80;19.77;;;-2.40;99.90;;;-2.48;70.49;102328.28;5094958;28;20215;-70
2022/12/18 10:07:51;;;;;;;33.13;17.70;;;-2.30;99.90;;;-2.50;69.95;102321.38;5105061;28;20196;-70
2022/12/18 10:10:38;;;;;;;39.13;19.50;;;-2.40;99.90;;;-2.58;69.61;102323.28;5095759;28;20239;-71
2022/12/18 10:13:20;;;;;;;39.67;20.33;;;-2.40;99.90;;;-2.62;69.95;102330.50;5094743;28;20253;-71
2022/12/18 10:16:09;;;;;;;43.77;20.90;;;-2.40;99.90;;;-2.65;70.52;102338.72;5091244;28;20251;-72
2022/12/18 10:19:01;;;;;;;37.53;19.13;;;-2.40;99.90;;;-2.69;70.45;102340.13;5093354;28;20204;-74
2022/12/18 10:21:40;;;;;;;42.20;20.50;;;-2.50;99.90;;;-2.68;70.36;102335.94;5096880;28;20204;-70